This is the latest recevied weather packets stored in our database for station/object TA6B-11. If no packets are shown the sender has not sent any weather packets the latest 10 day(s).
| Time | Temp. | Humidity | Pressure | Rain* | Wind** | Luminosity | Snow |
|---|---|---|---|---|---|---|---|
| 1788036582 | 22.78° C | 90% | 997 hPa | - | - | 0 W/m² | - |
| 1788036258 | 23.33° C | 90% | 997 hPa | - | - | 0 W/m² | - |
| 1788035933 | 22.78° C | 90% | 997 hPa | - | - | 0 W/m² | - |
| 1788035610 | 22.78° C | 89% | 997 hPa | - | - | 0 W/m² | - |
| 1788035286 | 23.33° C | 88% | 997 hPa | - | - | 0 W/m² | - |
| 1788034960 | 22.78° C | 87% | 997 hPa | - | - | 0 W/m² | - |
| 1788034635 | 22.78° C | 85% | 997 hPa | - | - | 0 W/m² | - |
| 1788034312 | 23.33° C | 82% | 997 hPa | - | - | 0 W/m² | - |
| 1788033924 | 0° C | 100% | 1000 hPa | - | - | 0 W/m² | - |
| 1788033599 | 0° C | 100% | 0 hPa | - | - | 0 W/m² | - |
| 1788033275 | 0° C | 100% | 0 hPa | - | - | 0 W/m² | - |
| 1788032953 | 0° C | 100% | 0 hPa | - | - | 0 W/m² | - |
| 1788032628 | 0° C | 100% | 4 hPa | - | - | 0 W/m² | - |
| 1788032436 | 23.89° C | 83% | 997 hPa | - | - | 0 W/m² | - |
| 1788032112 | 22.78° C | 90% | 997 hPa | - | - | 0 W/m² | - |
| 1788031789 | 22.78° C | 90% | 997 hPa | - | - | 0 W/m² | - |
| 1788031465 | 23.33° C | 91% | 998 hPa | - | - | 0 W/m² | - |
| 1788031140 | 22.78° C | 91% | 998 hPa | - | - | 0 W/m² | - |
| 1788030818 | 23.33° C | 90% | 998 hPa | - | - | 0 W/m² | - |
| 1788030494 | 22.78° C | 90% | 998 hPa | - | - | 0 W/m² | - |
| 1788030170 | 22.78° C | 89% | 998 hPa | - | - | 0 W/m² | - |
| 1788029845 | 23.33° C | 89% | 998 hPa | - | - | 0 W/m² | - |
| 1788029522 | 23.33° C | 89% | 998 hPa | - | - | 0 W/m² | - |
| 1788029197 | 23.33° C | 89% | 998 hPa | - | - | 0 W/m² | - |
| 1788028874 | 23.33° C | 89% | 998 hPa | - | - | 0 W/m² | - |
* Rain since midnight (hover to see other rain measurements)
** Current wind speed in m/s (hover to see current wind gust speed)